首页
METAR-TAF:

METAR-TAF

机场 :

莫林, 伊利诺伊州, 美国

纬度: 41-27-05N, 经度: 090-30-53W, 海拔: 179米

当前天气观测

该预报发布于24分钟前的14:52 UTC
风速5节,风向南转西南
温度 21°C
湿度 88%
气压 1012 hPa
能見度: 9.7公里
阴天层高于8000英尺
小雨, 轻雾

METAR: KMLI 221452Z 21005KT 6SM -RA BR OVC080 21/19 A2989 RMK AO2 SLP117 P0006 60027 T02110194 53005

时间: 10:16 (15:16 UTC)

预报

该预报发布于2小时和54分钟前的12:22 UTC
预报有效从22日的 12点(UTC)到 23日的 12点(UTC)
风速12节,风向南转西南
能見度: 9.7公里
阴天层高于2500英尺
小雨, 轻雾
短暂存在
从 22日的 12点(UTC)到 22日的 16点(UTC)
能見度: 3.2公里
阴天层高于1500英尺
雨, 轻雾
从 22日的 1600点(UTC)
风速8节,风向西
能見度: 6.4公里
阴天层高于1500英尺
雨, 轻雾
从 22日的 2300点(UTC)
风速9节,风向西
能見度: 8.0公里
阴天层高于1500英尺
阵雨
从 23日的 0200点(UTC)
风速8节,风向西转西北
能見度: 10公里
阴天层高于2000英尺
从 23日的 0800点(UTC)
风速12节,风向西北
能見度: 10公里
散云层高于2500英尺
多云层高于10000英尺

TAF: KMLI 221222Z 2212/2312 20012KT 6SM -RA BR OVC025 TEMPO 2212/2216 2SM RA BR OVC015 FM221600 28008KT 4SM RA BR OVC015 FM222300 28009KT 5SM SHRA OVC015 FM230200 30008KT P6SM OVC020 FM230800 31012KT P6SM SCT025 BKN100

超过4000个机场的气象观测和天气预报(METAR&TAF报告)。

可查询的气象台以黄色和红色小点在地图上表示。

将鼠标移到小点上方,可查看气象台名称。

然后点击查看天气观测和预报。

如需切换地图:点击带黑十字的绿色按钮放大地图;点击带横线的绿色按钮缩小地图;或者点击绿色箭头查看邻近地区的地图。


METAR-TAF: